createdAt,value
2018-01-23T00:00:07.206Z,35.30
2018-01-23T00:02:35.433Z,33.80
2018-01-23T00:05:03.685Z,32.57
2018-01-23T00:07:31.916Z,33.80
2018-01-23T00:10:00.145Z,32.73
2018-01-23T00:12:28.378Z,35.80
2018-01-23T00:14:57.404Z,30.30
2018-01-23T00:17:26.385Z,35.60
2018-01-23T00:19:55.405Z,33.20
2018-01-23T00:22:23.618Z,38.53
2018-01-23T00:24:51.854Z,32.13
2018-01-23T00:27:20.073Z,29.10
2018-01-23T00:29:49.430Z,36.87
2018-01-23T00:32:17.663Z,33.20
2018-01-23T00:34:46.685Z,33.33
2018-01-23T00:37:15.673Z,32.83
2018-01-23T00:39:43.885Z,32.90
2018-01-23T00:42:12.129Z,35.43
2018-01-23T00:44:40.357Z,31.17
2018-01-23T00:47:08.619Z,28.87
2018-01-23T00:49:36.850Z,30.87
2018-01-23T00:52:05.093Z,31.47
2018-01-23T00:54:33.305Z,32.10
2018-01-23T00:57:01.549Z,29.53
2018-01-23T00:59:30.551Z,30.57
2018-01-23T01:01:59.573Z,29.20
2018-01-23T01:04:27.785Z,31.57
2018-01-23T01:06:56.047Z,32.63
2018-01-23T01:09:24.250Z,36.43
2018-01-23T01:11:52.501Z,34.90
2018-01-23T01:14:20.740Z,32.80
2018-01-23T01:16:48.961Z,33.33
2018-01-23T01:19:17.205Z,36.80
2018-01-23T01:21:45.440Z,32.77
2018-01-23T01:24:14.441Z,29.67
2018-01-23T01:26:43.437Z,29.57
2018-01-23T01:29:11.681Z,26.80
2018-01-23T01:31:39.907Z,29.37
2018-01-23T01:34:08.177Z,32.67
2018-01-23T01:36:36.389Z,30.87
2018-01-23T01:39:04.616Z,35.03
2018-01-23T01:41:32.828Z,33.23
2018-01-23T01:44:01.095Z,31.20
2018-01-23T01:46:29.312Z,30.37
2018-01-23T01:48:57.544Z,30.10
2018-01-23T01:51:25.773Z,31.50
2018-01-23T01:53:53.989Z,29.67
2018-01-23T01:56:22.232Z,27.67
2018-01-23T01:58:51.221Z,25.50
2018-01-23T02:01:20.220Z,25.53
2018-01-23T02:03:49.212Z,28.17
2018-01-23T02:06:18.206Z,25.93
2018-01-23T02:08:47.191Z,33.17
2018-01-23T02:11:16.197Z,27.03
2018-01-23T02:13:44.413Z,29.50
2018-01-23T02:16:12.677Z,29.07
2018-01-23T02:18:40.933Z,29.83
2018-01-23T02:21:09.165Z,27.63
2018-01-23T02:23:37.402Z,27.77
2018-01-23T02:26:05.681Z,28.50
2018-01-23T02:28:33.934Z,26.80
2018-01-23T02:31:02.901Z,27.40
2018-01-23T02:33:31.902Z,28.53
2018-01-23T02:36:00.125Z,29.80
2018-01-23T02:38:28.366Z,26.00
2018-01-23T02:40:56.578Z,26.40
2018-01-23T02:43:24.922Z,26.80
2018-01-23T02:45:53.137Z,26.87
2018-01-23T02:48:21.356Z,29.20
2018-01-23T02:50:49.578Z,28.77
2018-01-23T02:53:17.817Z,27.13
2018-01-23T02:55:46.030Z,29.70
2018-01-23T02:58:14.245Z,27.47
2018-01-23T03:00:43.292Z,27.43
2018-01-23T03:03:11.576Z,27.43
2018-01-23T03:05:40.609Z,28.33
2018-01-23T03:08:09.603Z,28.70
2018-01-23T03:10:38.601Z,27.07
2018-01-23T03:13:06.854Z,24.77
2018-01-23T03:15:35.087Z,26.17
2018-01-23T03:18:03.341Z,29.50
2018-01-23T03:20:31.578Z,27.80
2018-01-23T03:22:59.788Z,31.13
2018-01-23T03:25:28.034Z,28.67
2018-01-23T03:27:57.025Z,28.93
2018-01-23T03:30:26.025Z,25.57
2018-01-23T03:32:54.220Z,26.70
2018-01-23T03:35:22.466Z,29.60
2018-01-23T03:37:51.461Z,29.13
2018-01-23T03:40:19.689Z,29.73
2018-01-23T03:42:47.975Z,29.53
2018-01-23T03:45:16.184Z,31.97
2018-01-23T03:47:45.241Z,33.00
2018-01-23T03:50:13.444Z,29.73
2018-01-23T03:52:41.669Z,32.40
2018-01-23T03:55:09.892Z,29.77
2018-01-23T03:57:38.472Z,31.57
2018-01-23T04:00:07.473Z,34.60
2018-01-23T04:02:36.466Z,29.27
2018-01-23T04:05:05.433Z,27.03
2018-01-23T04:07:33.656Z,27.57
2018-01-23T04:10:01.934Z,26.73
2018-01-23T04:12:30.916Z,30.23
2018-01-23T04:14:59.894Z,27.53
2018-01-23T04:17:28.124Z,27.93
2018-01-23T04:19:56.329Z,26.13
2018-01-23T04:22:24.540Z,26.07
2018-01-23T04:24:52.764Z,27.47
2018-01-23T04:27:20.980Z,25.77
2018-01-23T04:29:49.206Z,31.63
2018-01-23T04:32:17.416Z,30.37
2018-01-23T04:34:46.434Z,28.10
2018-01-23T04:37:15.381Z,28.77
2018-01-23T04:39:43.600Z,32.40
2018-01-23T04:42:11.810Z,26.73
2018-01-23T04:44:40.026Z,30.77
2018-01-23T04:47:08.237Z,26.27
2018-01-23T04:49:36.456Z,29.40
2018-01-23T04:52:05.454Z,26.80
2018-01-23T04:54:33.665Z,27.47
2018-01-23T04:57:01.874Z,32.70
2018-01-23T04:59:30.099Z,31.17
2018-01-23T05:01:59.073Z,28.47
2018-01-23T05:04:28.057Z,31.10
2018-01-23T05:06:56.276Z,30.87
2018-01-23T05:09:24.536Z,26.47
2018-01-23T05:11:52.757Z,26.00
2018-01-23T05:14:20.989Z,28.30
2018-01-23T05:16:49.213Z,30.27
2018-01-23T05:19:17.413Z,27.50
2018-01-23T05:21:46.408Z,26.67
2018-01-23T05:24:15.390Z,27.30
2018-01-23T05:26:43.612Z,28.53
2018-01-23T05:29:11.817Z,25.10
2018-01-23T05:31:40.838Z,26.57
2018-01-23T05:34:09.041Z,33.93
2018-01-23T05:36:37.494Z,26.73
2018-01-23T05:39:06.511Z,30.80
2018-01-23T05:44:10.001Z,28.60
2018-01-23T05:46:38.973Z,29.93
2018-01-23T05:49:07.193Z,27.23
2018-01-23T05:51:35.417Z,30.77
2018-01-23T05:54:03.633Z,29.03
2018-01-23T05:56:32.630Z,29.70
2018-01-23T05:59:00.849Z,28.63
2018-01-23T06:01:29.829Z,30.03
2018-01-23T06:03:58.035Z,26.30
2018-01-23T06:06:26.529Z,29.33
2018-01-23T06:08:55.521Z,25.80
2018-01-23T06:11:24.521Z,29.10
2018-01-23T06:16:50.674Z,27.80
2018-01-23T06:19:19.681Z,28.90
2018-01-23T06:21:47.893Z,28.20
2018-01-23T06:24:16.105Z,26.47
2018-01-23T06:26:45.101Z,25.03
2018-01-23T06:35:10.936Z,24.43
2018-01-23T06:37:39.161Z,23.60
2018-01-23T06:43:04.449Z,22.17
2018-01-23T06:45:33.441Z,21.57
2018-01-23T06:48:01.702Z,20.20
2018-01-23T06:50:29.929Z,22.20
2018-01-23T06:52:58.165Z,20.80
2018-01-23T06:58:24.445Z,22.13
2018-01-23T07:00:52.996Z,25.13
2018-01-23T07:03:21.238Z,23.97
2018-01-23T07:05:49.444Z,23.83
2018-01-23T07:08:18.501Z,22.33
2018-01-23T07:10:46.670Z,26.63
2018-01-23T07:13:14.904Z,21.80
2018-01-23T07:15:43.119Z,22.40
2018-01-23T07:18:11.338Z,22.33
2018-01-23T07:20:39.583Z,25.23
2018-01-23T07:23:07.768Z,22.60
2018-01-23T07:25:36.002Z,25.93
2018-01-23T07:28:04.209Z,23.07
2018-01-23T07:30:32.430Z,23.87
2018-01-23T07:33:01.421Z,22.87
2018-01-23T07:35:29.660Z,25.87
2018-01-23T07:37:57.870Z,25.80
2018-01-23T07:40:26.093Z,22.27
2018-01-23T07:42:54.307Z,23.70
2018-01-23T07:45:22.530Z,23.27
2018-01-23T07:47:50.733Z,24.07
2018-01-23T07:50:18.967Z,26.00
2018-01-23T07:52:47.185Z,24.60
2018-01-23T07:55:15.405Z,26.80
2018-01-23T07:57:43.640Z,27.90
2018-01-23T08:00:11.851Z,30.97
2018-01-23T08:02:40.088Z,24.07
2018-01-23T08:05:09.061Z,26.73
2018-01-23T08:07:37.295Z,23.90
2018-01-23T08:10:05.501Z,20.10
2018-01-23T08:12:33.727Z,27.33
2018-01-23T08:15:01.979Z,27.20
2018-01-23T08:17:30.277Z,23.87
2018-01-23T08:19:59.269Z,28.07
2018-01-23T08:22:27.489Z,25.93
2018-01-23T08:24:55.698Z,26.77
2018-01-23T08:27:24.689Z,23.67
2018-01-23T08:29:53.784Z,23.67
2018-01-23T08:32:21.960Z,25.57
2018-01-23T08:34:50.200Z,22.57
2018-01-23T08:37:18.401Z,26.53
2018-01-23T08:39:47.410Z,27.83
2018-01-23T08:42:15.657Z,29.60
2018-01-23T08:44:43.909Z,28.03
2018-01-23T08:47:12.109Z,24.10
2018-01-23T08:49:41.129Z,25.27
2018-01-23T08:52:09.361Z,28.27
2018-01-23T08:54:37.869Z,30.17
2018-01-23T08:57:06.856Z,29.47
2018-01-23T08:59:35.065Z,26.80
2018-01-23T09:02:03.302Z,26.43
2018-01-23T09:04:31.505Z,28.60
2018-01-23T09:06:59.725Z,26.17
2018-01-23T09:09:27.951Z,24.80
2018-01-23T09:11:56.203Z,23.00
2018-01-23T09:14:24.386Z,24.73
2018-01-23T09:16:53.413Z,26.03
2018-01-23T09:19:21.612Z,23.10
2018-01-23T09:21:49.840Z,28.10
2018-01-23T09:24:18.826Z,26.33
2018-01-23T09:26:47.811Z,25.40
2018-01-23T09:29:16.017Z,25.00
2018-01-23T09:31:44.213Z,24.53
2018-01-23T09:34:12.434Z,24.87
2018-01-23T09:36:41.408Z,28.33
2018-01-23T09:39:09.903Z,26.40
2018-01-23T09:41:38.884Z,23.90
2018-01-23T09:44:07.108Z,28.57
2018-01-23T09:46:35.330Z,25.30
2018-01-23T09:49:03.541Z,27.23
2018-01-23T09:51:31.753Z,22.50
2018-01-23T09:54:00.009Z,29.07
2018-01-23T09:56:28.205Z,24.17
2018-01-23T09:58:56.449Z,26.27
2018-01-23T10:01:24.661Z,27.20
2018-01-23T10:03:52.863Z,26.53
2018-01-23T10:06:21.960Z,27.10
2018-01-23T10:08:50.133Z,30.23
2018-01-23T10:11:19.124Z,27.17
2018-01-23T10:13:47.332Z,27.90
2018-01-23T10:16:15.569Z,26.37
2018-01-23T10:18:43.777Z,21.57
2018-01-23T10:21:11.997Z,23.83
2018-01-23T10:23:40.203Z,24.53
2018-01-23T10:26:09.190Z,25.60
2018-01-23T10:28:38.191Z,24.30
2018-01-23T10:31:06.597Z,27.40
2018-01-23T10:33:34.809Z,28.53
2018-01-23T10:36:03.322Z,28.50
2018-01-23T10:38:32.617Z,26.07
2018-01-23T10:41:01.611Z,26.70
2018-01-23T10:43:30.605Z,28.50
2018-01-23T10:45:58.836Z,29.87
2018-01-23T10:48:27.049Z,29.30
2018-01-23T10:50:56.029Z,30.13
2018-01-23T10:53:25.062Z,31.20
2018-01-23T10:55:53.289Z,29.53
2018-01-23T10:58:21.493Z,28.23
2018-01-23T11:00:55.460Z,26.70
2018-01-23T11:03:24.505Z,25.37
2018-01-23T11:05:52.777Z,26.70
2018-01-23T11:08:21.750Z,28.07
2018-01-23T11:10:51.362Z,30.47
2018-01-23T11:13:20.386Z,29.60
2018-01-23T11:15:49.342Z,31.07
2018-01-23T11:18:18.329Z,29.03
2018-01-23T11:20:47.342Z,28.60
2018-01-23T11:23:16.337Z,28.87
2018-01-23T11:25:44.616Z,28.03
2018-01-23T11:28:12.839Z,30.13
2018-01-23T11:30:41.066Z,28.40
2018-01-23T11:33:10.037Z,27.33
2018-01-23T11:35:38.329Z,26.37
2018-01-23T11:38:06.608Z,27.37
2018-01-23T11:43:34.185Z,29.03
2018-01-23T11:48:59.425Z,29.97
2018-01-23T11:51:27.641Z,33.20
2018-01-23T11:53:55.870Z,37.90
2018-01-23T11:56:24.101Z,31.83
2018-01-23T11:58:52.323Z,33.40
2018-01-23T12:01:20.553Z,31.70
2018-01-23T12:03:49.556Z,37.07
2018-01-23T12:06:18.858Z,32.40
2018-01-23T12:08:47.851Z,33.70
2018-01-23T12:11:16.843Z,35.27
2018-01-23T12:13:45.825Z,36.20
2018-01-23T12:16:14.889Z,30.43
2018-01-23T12:18:43.645Z,33.20
2018-01-23T12:21:11.865Z,31.33
2018-01-23T12:23:40.077Z,29.60
2018-01-23T12:26:08.334Z,31.33
2018-01-23T12:28:37.321Z,27.80
2018-01-23T12:31:05.572Z,30.00
2018-01-23T12:33:33.758Z,29.53
2018-01-23T12:36:02.757Z,28.60
2018-01-23T12:41:29.168Z,29.70
2018-01-23T12:43:57.400Z,34.73
2018-01-23T12:49:24.368Z,27.30
2018-01-23T12:51:53.340Z,28.27
2018-01-23T12:54:21.565Z,25.60
2018-01-23T12:56:49.798Z,26.70
2018-01-23T12:59:18.826Z,22.70
2018-01-23T13:01:47.062Z,26.30
2018-01-23T13:04:16.061Z,27.37
2018-01-23T13:06:44.304Z,21.57
2018-01-23T13:09:12.533Z,27.13
2018-01-23T13:11:40.769Z,26.93
2018-01-23T13:14:08.998Z,20.03
2018-01-23T13:16:37.209Z,22.33
2018-01-23T13:19:05.472Z,23.67
2018-01-23T13:21:33.704Z,27.53
2018-01-23T13:24:01.932Z,30.70
2018-01-23T13:26:30.164Z,20.87
2018-01-23T13:31:56.329Z,24.13
2018-01-23T13:34:25.989Z,21.77
2018-01-23T13:36:54.238Z,22.50
2018-01-23T13:39:22.456Z,20.40
2018-01-23T13:44:49.096Z,19.17
2018-01-23T13:47:18.113Z,21.90
2018-01-23T13:49:46.564Z,18.10
2018-01-23T13:52:21.016Z,22.80
2018-01-23T13:54:49.240Z,24.47
2018-01-23T13:57:17.462Z,19.97
2018-01-23T13:59:45.698Z,28.10
2018-01-23T14:02:13.921Z,19.10
2018-01-23T14:04:42.186Z,24.00
2018-01-23T14:07:11.156Z,20.00
2018-01-23T14:09:40.260Z,19.73
2018-01-23T14:12:09.225Z,27.00
2018-01-23T14:14:37.476Z,24.70
2018-01-23T14:17:05.673Z,19.60
2018-01-23T14:19:33.885Z,20.87
2018-01-23T14:22:02.101Z,20.20
2018-01-23T14:24:30.314Z,20.90
2018-01-23T14:26:59.309Z,26.00
2018-01-23T14:29:28.282Z,19.87
2018-01-23T14:31:56.589Z,20.00
2018-01-23T14:34:24.813Z,18.10
2018-01-23T14:36:53.035Z,17.80
2018-01-23T14:39:21.264Z,17.80
2018-01-23T14:41:49.593Z,20.13
2018-01-23T14:44:17.825Z,37.60
2018-01-23T14:46:46.041Z,87.20
2018-01-23T14:49:14.271Z,18.33
2018-01-23T14:51:42.512Z,16.30
2018-01-23T14:54:11.549Z,17.77
2018-01-23T14:56:39.774Z,17.83
2018-01-23T14:59:08.009Z,16.87
2018-01-23T15:01:37.005Z,18.80
2018-01-23T15:04:05.976Z,18.03
2018-01-23T15:06:34.219Z,16.27
2018-01-23T15:09:02.459Z,15.47
2018-01-23T15:11:31.432Z,18.97
2018-01-23T15:13:59.656Z,12.70
2018-01-23T15:16:27.865Z,13.90
2018-01-23T15:18:56.101Z,14.23
2018-01-23T15:21:24.317Z,14.80
2018-01-23T15:23:52.524Z,17.13
2018-01-23T15:26:21.532Z,19.47
2018-01-23T15:28:49.740Z,17.97
2018-01-23T15:31:17.966Z,16.17
2018-01-23T15:33:46.211Z,15.67
2018-01-23T15:36:14.417Z,14.60
2018-01-23T15:38:42.620Z,17.13
2018-01-23T15:41:10.990Z,22.17
2018-01-23T15:46:36.933Z,19.83
2018-01-23T15:52:03.468Z,21.37
2018-01-23T15:54:33.005Z,17.80
2018-01-23T15:57:01.572Z,16.27
2018-01-23T15:59:30.946Z,21.13
2018-01-23T16:01:59.540Z,18.63
2018-01-23T16:04:28.247Z,16.03
2018-01-23T16:06:56.914Z,17.40
2018-01-23T16:09:25.500Z,22.40
2018-01-23T16:11:54.826Z,21.47
2018-01-23T16:14:23.449Z,22.00
2018-01-23T16:16:51.994Z,19.77
2018-01-23T16:19:20.580Z,19.97
2018-01-23T16:21:49.130Z,21.47
2018-01-23T16:24:18.235Z,22.57
2018-01-23T16:26:46.482Z,15.00
2018-01-23T16:29:14.677Z,13.43
2018-01-23T16:31:42.890Z,16.03
2018-01-23T16:34:11.129Z,20.43
2018-01-23T16:36:40.093Z,20.50
2018-01-23T16:39:09.117Z,19.33
2018-01-23T16:41:37.337Z,16.90
2018-01-23T16:44:05.647Z,18.07
2018-01-23T16:46:33.835Z,18.73
2018-01-23T16:49:02.052Z,18.77
2018-01-23T16:51:30.301Z,11.60
2018-01-23T16:53:58.512Z,15.33
2018-01-23T16:56:26.741Z,13.20
2018-01-23T17:01:57.472Z,12.73
2018-01-23T17:04:26.464Z,15.60
2018-01-23T17:06:55.488Z,15.97
2018-01-23T17:09:23.721Z,15.43
2018-01-23T17:11:51.945Z,14.23
2018-01-23T17:14:20.149Z,12.47
2018-01-23T17:16:48.364Z,14.40
2018-01-23T17:19:40.297Z,14.43
2018-01-23T17:22:08.713Z,16.60
2018-01-23T17:24:36.945Z,14.87
2018-01-23T17:27:05.195Z,17.60
2018-01-23T17:29:34.928Z,14.07
2018-01-23T17:32:03.912Z,16.53
2018-01-23T17:34:32.150Z,14.90
2018-01-23T17:37:00.379Z,16.80
2018-01-23T17:39:28.609Z,16.83
2018-01-23T17:41:56.831Z,15.17
2018-01-23T17:44:25.057Z,13.03
2018-01-23T17:46:53.272Z,12.67
2018-01-23T17:49:21.536Z,18.17
2018-01-23T17:51:50.529Z,20.30
2018-01-23T17:54:18.876Z,14.47
2018-01-23T17:56:47.122Z,19.33
2018-01-23T17:59:15.355Z,17.57
2018-01-23T18:01:44.342Z,14.00
2018-01-23T18:04:13.334Z,13.40
2018-01-23T18:06:42.326Z,13.43
2018-01-23T18:09:11.313Z,13.07
2018-01-23T18:11:39.589Z,17.60
2018-01-23T18:14:08.581Z,14.35
2018-01-23T18:16:36.809Z,12.97
2018-01-23T18:19:05.056Z,14.00
2018-01-23T18:21:33.617Z,16.03
2018-01-23T18:24:02.620Z,12.40
2018-01-23T18:26:31.601Z,15.20
2018-01-23T18:29:00.605Z,15.40
2018-01-23T18:31:28.843Z,14.97
2018-01-23T18:33:57.873Z,15.40
2018-01-23T18:36:26.865Z,16.10
2018-01-23T18:38:55.861Z,14.63
2018-01-23T18:41:24.098Z,16.93
2018-01-23T18:43:52.308Z,21.70
2018-01-23T18:46:20.554Z,15.40
2018-01-23T18:48:48.792Z,20.00
2018-01-23T18:51:17.013Z,15.50
2018-01-23T18:53:46.026Z,20.63
2018-01-23T18:56:14.253Z,16.10
2018-01-23T18:58:42.485Z,13.30
2018-01-23T19:01:10.716Z,13.07
2018-01-23T19:03:38.941Z,15.57
2018-01-23T19:09:06.511Z,14.00
2018-01-23T19:11:34.722Z,15.00
2018-01-23T19:14:14.973Z,13.73
2018-01-23T19:16:43.180Z,19.47
2018-01-23T19:22:10.053Z,20.27
2018-01-23T19:24:38.281Z,20.80
2018-01-23T19:27:06.489Z,18.43
2018-01-23T19:29:35.525Z,19.90
2018-01-23T19:32:04.521Z,16.60
2018-01-23T19:34:33.714Z,16.27
2018-01-23T19:40:00.087Z,14.00
2018-01-23T19:45:25.338Z,17.87
2018-01-23T19:47:53.551Z,16.53
2018-01-23T19:50:22.545Z,15.73
2018-01-23T19:52:51.520Z,20.53
2018-01-23T19:55:20.537Z,19.50
2018-01-23T19:57:50.322Z,18.97
2018-01-23T20:00:19.321Z,16.53
2018-01-23T20:02:47.517Z,17.53
2018-01-23T20:08:23.477Z,17.93
2018-01-23T20:10:52.469Z,16.70
2018-01-23T20:13:21.470Z,18.60
2018-01-23T20:15:49.682Z,14.80
2018-01-23T20:18:17.912Z,19.40
2018-01-23T20:20:47.203Z,18.90
2018-01-23T20:23:16.549Z,17.07
2018-01-23T20:28:43.682Z,17.13
2018-01-23T20:31:12.666Z,18.27
2018-01-23T20:33:41.061Z,19.30
2018-01-23T20:36:10.202Z,16.50
2018-01-23T20:38:39.205Z,18.60
2018-01-23T20:41:07.529Z,15.30
2018-01-23T20:43:35.799Z,17.13
2018-01-23T20:46:04.275Z,13.93
2018-01-23T20:51:31.062Z,18.47
2018-01-23T20:53:59.302Z,17.40
2018-01-23T20:56:28.319Z,15.03
2018-01-23T20:58:56.537Z,14.83
2018-01-23T21:01:25.044Z,17.70
2018-01-23T21:03:53.254Z,16.27
2018-01-23T21:06:22.231Z,16.80
2018-01-23T21:08:51.194Z,17.10
2018-01-23T21:11:19.413Z,15.27
2018-01-23T21:13:47.647Z,14.73
2018-01-23T21:16:15.872Z,16.80
2018-01-23T21:18:44.082Z,13.10
2018-01-23T21:21:13.520Z,14.67
2018-01-23T21:23:42.496Z,17.27
2018-01-23T21:26:11.655Z,14.03
2018-01-23T21:28:40.681Z,15.07
2018-01-23T21:31:09.679Z,17.00
2018-01-23T21:33:38.662Z,16.43
2018-01-23T21:45:02.533Z,20.00
2018-01-23T21:47:30.769Z,14.20
2018-01-23T21:49:59.022Z,15.80
2018-01-23T21:52:27.271Z,17.00
2018-01-23T21:54:55.529Z,17.23
2018-01-23T21:57:23.721Z,15.30
2018-01-23T21:59:51.950Z,17.60
2018-01-23T22:02:20.152Z,15.63
2018-01-23T22:04:48.490Z,15.00
2018-01-23T22:07:17.532Z,14.60
2018-01-23T22:09:45.760Z,13.53
2018-01-23T22:12:14.796Z,16.43
2018-01-23T22:14:43.749Z,14.77
2018-01-23T22:17:12.725Z,16.17
2018-01-23T22:19:41.770Z,15.20
2018-01-23T22:22:10.004Z,19.93
2018-01-23T22:24:39.010Z,17.43
2018-01-23T22:27:07.985Z,19.80
2018-01-23T22:29:36.990Z,17.30
2018-01-23T22:32:06.017Z,18.43
2018-01-23T22:34:34.243Z,20.10
2018-01-23T22:37:03.248Z,16.50
2018-01-23T22:39:32.346Z,16.37
2018-01-23T22:42:01.430Z,15.87
2018-01-23T22:44:29.656Z,20.50
2018-01-23T22:46:58.195Z,15.03
2018-01-23T22:49:27.454Z,16.27
2018-01-23T22:51:55.788Z,14.47
2018-01-23T22:54:24.053Z,16.53
2018-01-23T22:56:52.330Z,17.13
2018-01-23T22:59:20.566Z,21.00
2018-01-23T23:01:48.815Z,20.37
2018-01-23T23:04:17.043Z,15.30
2018-01-23T23:06:46.053Z,17.00
2018-01-23T23:09:14.292Z,15.10
2018-01-23T23:11:43.326Z,17.10
2018-01-23T23:14:11.552Z,17.33
2018-01-23T23:16:39.834Z,12.70
2018-01-23T23:19:09.161Z,16.73
2018-01-23T23:21:37.426Z,16.27
2018-01-23T23:24:06.473Z,15.10
2018-01-23T23:26:35.621Z,17.00
2018-01-23T23:29:04.821Z,19.53
2018-01-23T23:31:33.081Z,17.63
2018-01-23T23:34:02.095Z,18.37
2018-01-23T23:36:31.094Z,17.30
2018-01-23T23:38:59.451Z,17.40
2018-01-23T23:41:27.656Z,18.27
2018-01-23T23:43:55.902Z,15.07
2018-01-23T23:46:24.913Z,16.63
2018-01-23T23:48:53.113Z,17.20
2018-01-23T23:51:21.657Z,14.57
2018-01-23T23:53:49.979Z,23.30
2018-01-23T23:56:18.233Z,18.57
2018-01-23T23:58:46.461Z,16.70
